Dunwoody, GA (30338)

5:55 PM EST on February 10, 2016 (GMT -0500)
Dunwoody | | Change Station
CLOSE
Current Station
Personal Weather Station
Location: Dunwoody, GA
Elevation: 978 ft
Nearby Weather Stations

Elev 978 ft 33.93 °N, 84.31 °W | Updated 5 minutes ago

Clear
Clear
33.1 °F
Feels Like 33 °F
N
2.7
Wind Variable Wind from SW

Today
High -- | Low -- °F
--% Chance of Precip.
Yesterday
High -- | Low -- °F
Precip. -- in
Pressure 30.15 in
Visibility 10.0 miles
Clouds Mostly Cloudy 12000 ft
Windchill 33 °F
Dew Point 10 °F
Humidity 38%
Rainfall 0.00 in
Snow Depth Not available.
7:27 AM 6:16 PM
Waxing Crescent, 7% visible
METAR KPDK 102153Z AUTO 29012G20KT 10SM BKN120 02/M12 A3009 RMK AO2 SLP209 T00171117
Pressure 30.15 in
Visibility 10.0 miles
Clouds Mostly Cloudy 12000 ft
Windchill 33 °F
Dew Point 10 °F
Humidity 38%
Rainfall 0.00 in
Snow Depth Not available.
7:27 AM 6:16 PM
Waxing Crescent, 7% visible
METAR KPDK 102153Z AUTO 29012G20KT 10SM BKN120 02/M12 A3009 RMK AO2 SLP209 T00171117

10-Day Weather Forecast

Almanac

Astronomy

Feb. 10, 2016 Rise Set
Actual Time
Civil Twilight
Nautical Twilight
Astronomical Twilight
Moon
Length of Visible Light
Length of Day
Tomorrow will be .
, % of the Moon is Illuminated

Today's Extremes

State Highs State Lows

Community

WunderPhotos

Upload Photos

1,891,940 photos uploaded!

WunderBlog® & News

Nearby

Air Quality

  Air Quality AQ Index Pollutant
Not available.

Snow Depth

Station Depth Elevation

Earthquake Activity

City Distance Mag. Time & Date
Minimum magnitude displayed is 2.5.

Coastal Water Temperatures

Place Temperature

Stations

Nearby Weather Stations

Station Location Temp. Windchill Dew Point Humidity Wind Precip. Elev Updated Type
                   

Watches & Warnings

There are currently no watches in effect.